Terminal Aerodrome Forecast
Issued by NWS

Current Version | Previous Version | Text Only | Print | Product List | Glossary On
Versions: 1 2 3 4 5 6 7 8 9 10 11 12 13
000
FTUS42 TJSJ 232000 AAA
TAFIST
TAF AMD
TIST 232007Z 2320/2418 08013G18KT P6SM VCSH FEW030 SCT040
     FM232300 09010KT P6SM FEW025
     FM241300 13012KT P6SM SCT025=

USA.gov is the U.S. government's official web portal to all federal, state and local government web resources and services.